RYR36JX EGBB-LPPT
Flight info
| Callsign | RYR36JX |
|---|---|
| Flight time | 2h 20m |
| Altitude | 29000 |
| Route | ADMEX Y321 CPT/N0366F230 Y321 PEPIS/N0441F360 Q41 SAM/N0444F370 M195 LORKU DCT BALDA DCT ABUPI DCT XAMAX |
| Aircraft | B738/M-SDE3FGILRWY/SB1 |
Departure
| Time | 2026-05-05 10:28 |
|---|---|
| Airport | Birmingham Airport (EGBB) |
Arrival
| Time | 2026-05-05 12:48 |
|---|---|
| Airport | Lisbon Humberto Delgado Airport (LPPT) |
| Time | Latitude | Longitude | Altitude | Speed | Heading |
|---|---|---|---|---|---|
| 2026-05-05 10:05 | 52.45399 | -1.73518 | 322 ft | 0 kts | 146° |
| 2026-05-05 10:09 | 52.45399 | -1.73519 | 322 ft | 0 kts | 146° |
| 2026-05-05 10:21 | 52.45415 | -1.73537 | 320 ft | 3 kts | 146° |
| 2026-05-05 10:21 | 52.45433 | -1.73556 | 319 ft | 4 kts | 154° |
| 2026-05-05 10:21 | 52.45458 | -1.73570 | 318 ft | 4 kts | 175° |
| 2026-05-05 10:21 | 52.45482 | -1.73564 | 319 ft | 4 kts | 221° |
| 2026-05-05 10:22 | 52.45482 | -1.73569 | 319 ft | 4 kts | 236° |
| 2026-05-05 10:22 | 52.45476 | -1.73583 | 319 ft | 0 kts | 236° |
| 2026-05-05 10:24 | 52.45475 | -1.73586 | 322 ft | 1 kts | 236° |
| 2026-05-05 10:24 | 52.45462 | -1.73617 | 321 ft | 6 kts | 236° |
| 2026-05-05 10:24 | 52.45443 | -1.73665 | 322 ft | 9 kts | 236° |
| 2026-05-05 10:25 | 52.45398 | -1.73774 | 322 ft | 14 kts | 235° |
| 2026-05-05 10:25 | 52.45335 | -1.73925 | 322 ft | 18 kts | 236° |
| 2026-05-05 10:25 | 52.45238 | -1.73927 | 322 ft | 17 kts | 144° |
| 2026-05-05 10:25 | 52.45140 | -1.73819 | 322 ft | 17 kts | 146° |
| 2026-05-05 10:26 | 52.45038 | -1.73744 | 322 ft | 16 kts | 161° |
| 2026-05-05 10:26 | 52.44947 | -1.73649 | 322 ft | 15 kts | 151° |
| 2026-05-05 10:26 | 52.44847 | -1.73673 | 322 ft | 15 kts | 197° |
| 2026-05-05 10:26 | 52.44752 | -1.73722 | 321 ft | 14 kts | 204° |
| 2026-05-05 10:27 | 52.44693 | -1.73842 | 325 ft | 13 kts | 236° |
| 2026-05-05 10:27 | 52.44651 | -1.73960 | 326 ft | 9 kts | 269° |
| 2026-05-05 10:27 | 52.44696 | -1.74035 | 326 ft | 14 kts | 326° |
| 2026-05-05 10:27 | 52.44955 | -1.74324 | 327 ft | 81 kts | 326° |
| 2026-05-05 10:28 | 52.45604 | -1.75043 | 321 ft | 142 kts | 326° |
| 2026-05-05 10:28 | 52.46541 | -1.76089 | 637 ft | 171 kts | 327° |
| 2026-05-05 10:28 | 52.47533 | -1.77183 | 1595 ft | 169 kts | 328° |
| 2026-05-05 10:28 | 52.48566 | -1.78346 | 2141 ft | 196 kts | 328° |
| 2026-05-05 10:29 | 52.49769 | -1.79514 | 2653 ft | 206 kts | 342° |
| 2026-05-05 10:29 | 52.51207 | -1.79743 | 3306 ft | 213 kts | 9° |
| 2026-05-05 10:29 | 52.52602 | -1.78854 | 3967 ft | 223 kts | 35° |
| 2026-05-05 10:29 | 52.53640 | -1.76934 | 4692 ft | 232 kts | 63° |
| 2026-05-05 10:30 | 52.53970 | -1.74335 | 5414 ft | 239 kts | 94° |
| 2026-05-05 10:30 | 52.53665 | -1.71510 | 5769 ft | 265 kts | 103° |
| 2026-05-05 10:30 | 52.53203 | -1.68517 | 6443 ft | 275 kts | 110° |
| 2026-05-05 10:30 | 52.52178 | -1.65849 | 7187 ft | 279 kts | 132° |
| 2026-05-05 10:31 | 52.50815 | -1.63572 | 8023 ft | 282 kts | 136° |
| 2026-05-05 10:31 | 52.49383 | -1.61322 | 8808 ft | 288 kts | 136° |
| 2026-05-05 10:31 | 52.47926 | -1.59015 | 9569 ft | 295 kts | 135° |
| 2026-05-05 10:31 | 52.46449 | -1.56652 | 10348 ft | 299 kts | 136° |
| 2026-05-05 10:32 | 52.44747 | -1.54490 | 10604 ft | 322 kts | 150° |
| 2026-05-05 10:32 | 52.42622 | -1.53046 | 10856 ft | 341 kts | 166° |
| 2026-05-05 10:32 | 52.40275 | -1.52096 | 11392 ft | 351 kts | 168° |
| 2026-05-05 10:32 | 52.37882 | -1.51200 | 12165 ft | 353 kts | 168° |
| 2026-05-05 10:33 | 52.35482 | -1.50301 | 12999 ft | 355 kts | 168° |
| 2026-05-05 10:33 | 52.33061 | -1.49380 | 13700 ft | 360 kts | 168° |
| 2026-05-05 10:33 | 52.30605 | -1.48428 | 14352 ft | 364 kts | 168° |
| 2026-05-05 10:33 | 52.28132 | -1.47457 | 15093 ft | 366 kts | 168° |
| 2026-05-05 10:34 | 52.25657 | -1.46477 | 15790 ft | 368 kts | 167° |
| 2026-05-05 10:34 | 52.23163 | -1.45486 | 16513 ft | 370 kts | 167° |
| 2026-05-05 10:34 | 52.20663 | -1.44492 | 17256 ft | 371 kts | 167° |
| 2026-05-05 10:34 | 52.18148 | -1.43491 | 17978 ft | 372 kts | 167° |
| 2026-05-05 10:35 | 52.15633 | -1.42492 | 18649 ft | 374 kts | 167° |
| 2026-05-05 10:35 | 52.13085 | -1.41481 | 19154 ft | 379 kts | 167° |
| 2026-05-05 10:35 | 52.10512 | -1.40461 | 19733 ft | 381 kts | 167° |
| 2026-05-05 10:35 | 52.07937 | -1.39441 | 20375 ft | 382 kts | 167° |
| 2026-05-05 10:36 | 52.05346 | -1.38417 | 20922 ft | 385 kts | 167° |
| 2026-05-05 10:36 | 52.02729 | -1.37383 | 21463 ft | 388 kts | 167° |
| 2026-05-05 10:36 | 52.00095 | -1.36345 | 22021 ft | 391 kts | 167° |
| 2026-05-05 10:36 | 51.97408 | -1.35644 | 22556 ft | 392 kts | 179° |
| 2026-05-05 10:37 | 51.94686 | -1.35929 | 23118 ft | 393 kts | 190° |
| 2026-05-05 10:37 | 51.92032 | -1.37029 | 23645 ft | 395 kts | 198° |
| 2026-05-05 10:37 | 51.89416 | -1.38430 | 24096 ft | 397 kts | 199° |
| 2026-05-05 10:37 | 51.86792 | -1.39851 | 24558 ft | 399 kts | 199° |
| 2026-05-05 10:38 | 51.84191 | -1.41255 | 25024 ft | 400 kts | 199° |
| 2026-05-05 10:38 | 51.81514 | -1.42688 | 25489 ft | 401 kts | 199° |
| 2026-05-05 10:38 | 51.78896 | -1.44079 | 25921 ft | 402 kts | 198° |
| 2026-05-05 10:38 | 51.76186 | -1.45509 | 26335 ft | 405 kts | 198° |
| 2026-05-05 10:39 | 51.73540 | -1.46898 | 26744 ft | 406 kts | 198° |
| 2026-05-05 10:39 | 51.70848 | -1.48306 | 27168 ft | 408 kts | 198° |
| 2026-05-05 10:39 | 51.68148 | -1.49715 | 27595 ft | 409 kts | 198° |
| 2026-05-05 10:39 | 51.65438 | -1.51127 | 28003 ft | 410 kts | 198° |
| 2026-05-05 10:40 | 51.62718 | -1.52542 | 28406 ft | 411 kts | 198° |
| 2026-05-05 10:40 | 51.59994 | -1.53957 | 28802 ft | 412 kts | 199° |
| 2026-05-05 10:40 | 51.57259 | -1.55376 | 29189 ft | 414 kts | 199° |
| 2026-05-05 10:40 | 51.54514 | -1.56799 | 29608 ft | 414 kts | 198° |
| 2026-05-05 10:41 | 51.51782 | -1.58213 | 30107 ft | 412 kts | 199° |
| 2026-05-05 10:41 | 51.49053 | -1.59624 | 30402 ft | 413 kts | 198° |
| 2026-05-05 10:41 | 51.46310 | -1.61040 | 30632 ft | 416 kts | 198° |
| 2026-05-05 10:41 | 51.43545 | -1.62466 | 30862 ft | 418 kts | 198° |
| 2026-05-05 10:42 | 51.38000 | -1.65321 | 31479 ft | 419 kts | 198° |
| 2026-05-05 10:42 | 51.35220 | -1.66749 | 31746 ft | 420 kts | 198° |
| 2026-05-05 10:42 | 51.32427 | -1.68182 | 32012 ft | 422 kts | 198° |
| 2026-05-05 10:43 | 51.29631 | -1.69615 | 32320 ft | 422 kts | 198° |
| 2026-05-05 10:43 | 51.26833 | -1.71047 | 32665 ft | 422 kts | 198° |
| 2026-05-05 10:43 | 51.24028 | -1.72481 | 32958 ft | 424 kts | 198° |
| 2026-05-05 10:43 | 51.21213 | -1.73918 | 33252 ft | 426 kts | 198° |
| 2026-05-05 10:44 | 51.18387 | -1.75358 | 33533 ft | 426 kts | 198° |
| 2026-05-05 10:44 | 51.15564 | -1.76796 | 33817 ft | 427 kts | 198° |
| 2026-05-05 10:44 | 51.12732 | -1.78236 | 34087 ft | 427 kts | 198° |
| 2026-05-05 10:44 | 51.09898 | -1.79675 | 34304 ft | 428 kts | 198° |
| 2026-05-05 10:45 | 51.07058 | -1.81116 | 34494 ft | 429 kts | 198° |
| 2026-05-05 10:45 | 51.04218 | -1.82554 | 34740 ft | 429 kts | 197° |
| 2026-05-05 10:45 | 51.01380 | -1.83990 | 34993 ft | 429 kts | 197° |
| 2026-05-05 10:46 | 50.95674 | -1.86872 | 35150 ft | 434 kts | 197° |
| 2026-05-05 10:46 | 50.92805 | -1.88317 | 35512 ft | 431 kts | 197° |
| 2026-05-05 10:46 | 50.89954 | -1.89752 | 35700 ft | 432 kts | 197° |
| 2026-05-05 10:46 | 50.87076 | -1.91199 | 35886 ft | 432 kts | 197° |
| 2026-05-05 10:47 | 50.84221 | -1.92632 | 36167 ft | 431 kts | 197° |
| 2026-05-05 10:47 | 50.81354 | -1.94070 | 36268 ft | 434 kts | 197° |
| 2026-05-05 10:47 | 50.78420 | -1.95538 | 36402 ft | 436 kts | 197° |
| 2026-05-05 10:47 | 50.75586 | -1.96956 | 36765 ft | 432 kts | 197° |
| 2026-05-05 10:48 | 50.72683 | -1.98406 | 36945 ft | 433 kts | 197° |
| 2026-05-05 10:48 | 50.67864 | -2.00808 | 36974 ft | 438 kts | 197° |
| 2026-05-05 10:49 | 50.62588 | -2.03433 | 36971 ft | 437 kts | 197° |
| 2026-05-05 10:49 | 50.56796 | -2.06307 | 36982 ft | 436 kts | 197° |
| 2026-05-05 10:50 | 50.50977 | -2.09187 | 36971 ft | 435 kts | 197° |
| 2026-05-05 10:50 | 50.45365 | -2.11957 | 36979 ft | 435 kts | 197° |
| 2026-05-05 10:51 | 50.39599 | -2.14797 | 36979 ft | 436 kts | 197° |
| 2026-05-05 10:51 | 50.33811 | -2.17640 | 36970 ft | 436 kts | 197° |
| 2026-05-05 10:52 | 50.28011 | -2.20481 | 36980 ft | 437 kts | 197° |
| 2026-05-05 10:52 | 50.22201 | -2.23321 | 36980 ft | 438 kts | 197° |
| 2026-05-05 10:53 | 50.16378 | -2.26159 | 36980 ft | 439 kts | 197° |
| 2026-05-05 10:53 | 50.10538 | -2.28999 | 36990 ft | 440 kts | 197° |
| 2026-05-05 10:54 | 50.04688 | -2.31836 | 36979 ft | 441 kts | 197° |
| 2026-05-05 10:54 | 49.98821 | -2.34676 | 36983 ft | 442 kts | 197° |
| 2026-05-05 10:55 | 49.92953 | -2.37565 | 36980 ft | 443 kts | 200° |
| 2026-05-05 10:55 | 49.87258 | -2.41229 | 36970 ft | 443 kts | 204° |
| 2026-05-05 10:56 | 49.81615 | -2.45095 | 36972 ft | 443 kts | 204° |
| 2026-05-05 10:56 | 49.75960 | -2.48923 | 36971 ft | 443 kts | 203° |
| 2026-05-05 10:57 | 49.70300 | -2.52690 | 36968 ft | 443 kts | 203° |
| 2026-05-05 10:57 | 49.64639 | -2.56425 | 36970 ft | 442 kts | 202° |
| 2026-05-05 10:58 | 49.58997 | -2.60134 | 36969 ft | 440 kts | 202° |
| 2026-05-05 10:58 | 49.53396 | -2.63806 | 36960 ft | 439 kts | 202° |
| 2026-05-05 10:59 | 49.47772 | -2.67486 | 36975 ft | 437 kts | 202° |
| 2026-05-05 10:59 | 49.42182 | -2.71135 | 36971 ft | 436 kts | 202° |
| 2026-05-05 11:00 | 49.36645 | -2.74741 | 36959 ft | 435 kts | 202° |
| 2026-05-05 11:00 | 49.31067 | -2.78364 | 36972 ft | 435 kts | 202° |
| 2026-05-05 11:01 | 49.25484 | -2.81982 | 36976 ft | 436 kts | 202° |
| 2026-05-05 11:01 | 49.19884 | -2.85601 | 36961 ft | 437 kts | 202° |
| 2026-05-05 11:02 | 49.14272 | -2.89219 | 36971 ft | 438 kts | 202° |
| 2026-05-05 11:02 | 49.08646 | -2.92838 | 36968 ft | 439 kts | 202° |
| 2026-05-05 11:03 | 49.03009 | -2.96455 | 36968 ft | 440 kts | 202° |
| 2026-05-05 11:03 | 48.97354 | -3.00074 | 36973 ft | 441 kts | 201° |
| 2026-05-05 11:04 | 48.91689 | -3.03691 | 36967 ft | 441 kts | 201° |
| 2026-05-05 11:04 | 48.86020 | -3.07301 | 36953 ft | 442 kts | 202° |
| 2026-05-05 11:05 | 48.80342 | -3.10908 | 36966 ft | 443 kts | 202° |
| 2026-05-05 11:05 | 48.74657 | -3.14511 | 36969 ft | 443 kts | 201° |
| 2026-05-05 11:06 | 48.68964 | -3.18110 | 36958 ft | 444 kts | 202° |
| 2026-05-05 11:06 | 48.63293 | -3.21686 | 36972 ft | 445 kts | 201° |
| 2026-05-05 11:07 | 48.57571 | -3.25285 | 36974 ft | 446 kts | 201° |
| 2026-05-05 11:07 | 48.51834 | -3.28886 | 36966 ft | 446 kts | 201° |
| 2026-05-05 11:08 | 48.46108 | -3.32470 | 36962 ft | 445 kts | 201° |
| 2026-05-05 11:08 | 48.40385 | -3.36044 | 36959 ft | 444 kts | 201° |
| 2026-05-05 11:09 | 48.34678 | -3.39600 | 36945 ft | 443 kts | 201° |
| 2026-05-05 11:09 | 48.28995 | -3.43131 | 36966 ft | 441 kts | 201° |
| 2026-05-05 11:10 | 48.23309 | -3.46656 | 36945 ft | 442 kts | 201° |
| 2026-05-05 11:10 | 48.17623 | -3.50172 | 36956 ft | 441 kts | 201° |
| 2026-05-05 11:11 | 48.11942 | -3.53677 | 36940 ft | 441 kts | 201° |
| 2026-05-05 11:11 | 48.06263 | -3.57172 | 36963 ft | 442 kts | 201° |
| 2026-05-05 11:12 | 48.01521 | -3.60084 | 36944 ft | 444 kts | 201° |
| 2026-05-05 11:12 | 47.95794 | -3.63593 | 36941 ft | 446 kts | 201° |
| 2026-05-05 11:13 | 47.90048 | -3.67106 | 36946 ft | 447 kts | 201° |
| 2026-05-05 11:13 | 47.84288 | -3.70619 | 36945 ft | 449 kts | 201° |
| 2026-05-05 11:14 | 47.78502 | -3.74139 | 36940 ft | 450 kts | 201° |
| 2026-05-05 11:14 | 47.72709 | -3.77655 | 36954 ft | 450 kts | 200° |
| 2026-05-05 11:15 | 47.67530 | -3.80791 | 36945 ft | 451 kts | 201° |
| 2026-05-05 11:15 | 47.62942 | -3.83564 | 36954 ft | 451 kts | 201° |
| 2026-05-05 11:16 | 47.57470 | -3.86863 | 36963 ft | 452 kts | 201° |
| 2026-05-05 11:16 | 47.51640 | -3.90370 | 36963 ft | 453 kts | 201° |
| 2026-05-05 11:17 | 47.45795 | -3.93878 | 36957 ft | 453 kts | 201° |
| 2026-05-05 11:17 | 47.39951 | -3.97377 | 36958 ft | 453 kts | 201° |
| 2026-05-05 11:18 | 47.34103 | -4.00870 | 36968 ft | 453 kts | 201° |
| 2026-05-05 11:18 | 47.28254 | -4.04356 | 36963 ft | 453 kts | 201° |
| 2026-05-05 11:19 | 47.22410 | -4.07829 | 36960 ft | 453 kts | 201° |
| 2026-05-05 11:19 | 47.16567 | -4.11294 | 36963 ft | 452 kts | 201° |
| 2026-05-05 11:20 | 47.10769 | -4.14724 | 36954 ft | 452 kts | 201° |
| 2026-05-05 11:20 | 47.04933 | -4.18169 | 36969 ft | 452 kts | 201° |
| 2026-05-05 11:21 | 46.99092 | -4.21608 | 36967 ft | 452 kts | 201° |
| 2026-05-05 11:21 | 46.93254 | -4.25038 | 36970 ft | 452 kts | 201° |
| 2026-05-05 11:22 | 46.87411 | -4.28462 | 36960 ft | 452 kts | 201° |
| 2026-05-05 11:22 | 46.81570 | -4.31877 | 36966 ft | 452 kts | 201° |
| 2026-05-05 11:23 | 46.75719 | -4.35290 | 36967 ft | 453 kts | 201° |
| 2026-05-05 11:23 | 46.69868 | -4.38695 | 36965 ft | 453 kts | 201° |
| 2026-05-05 11:24 | 46.64013 | -4.42094 | 36965 ft | 453 kts | 201° |
| 2026-05-05 11:24 | 46.58159 | -4.45485 | 36968 ft | 453 kts | 201° |
| 2026-05-05 11:25 | 46.52294 | -4.48874 | 36966 ft | 453 kts | 201° |
| 2026-05-05 11:25 | 46.46435 | -4.52252 | 36966 ft | 453 kts | 201° |
| 2026-05-05 11:26 | 46.40570 | -4.55626 | 36975 ft | 453 kts | 201° |
| 2026-05-05 11:26 | 46.34706 | -4.58991 | 36973 ft | 453 kts | 201° |
| 2026-05-05 11:27 | 46.28839 | -4.62350 | 36968 ft | 454 kts | 201° |
| 2026-05-05 11:27 | 46.22973 | -4.65700 | 36980 ft | 453 kts | 201° |
| 2026-05-05 11:28 | 46.17109 | -4.69042 | 36979 ft | 453 kts | 201° |
| 2026-05-05 11:28 | 46.11245 | -4.72377 | 36976 ft | 453 kts | 201° |
| 2026-05-05 11:29 | 46.05384 | -4.75702 | 36976 ft | 453 kts | 201° |
| 2026-05-05 11:29 | 45.99525 | -4.79017 | 36978 ft | 453 kts | 201° |
| 2026-05-05 11:30 | 45.93705 | -4.82304 | 36979 ft | 453 kts | 202° |
| 2026-05-05 11:30 | 45.87840 | -4.85609 | 36983 ft | 453 kts | 202° |
| 2026-05-05 11:31 | 45.81975 | -4.88906 | 36990 ft | 453 kts | 202° |
| 2026-05-05 11:31 | 45.76101 | -4.92200 | 36983 ft | 453 kts | 202° |
| 2026-05-05 11:32 | 45.70225 | -4.95489 | 36981 ft | 454 kts | 202° |
| 2026-05-05 11:32 | 45.64340 | -4.98775 | 36989 ft | 454 kts | 202° |
| 2026-05-05 11:33 | 45.58456 | -5.02053 | 36988 ft | 454 kts | 202° |
| 2026-05-05 11:33 | 45.52570 | -5.05324 | 36988 ft | 454 kts | 202° |
| 2026-05-05 11:34 | 45.46687 | -5.08586 | 36982 ft | 454 kts | 202° |
| 2026-05-05 11:34 | 45.40802 | -5.11843 | 36997 ft | 454 kts | 202° |
| 2026-05-05 11:35 | 45.34913 | -5.15095 | 36990 ft | 454 kts | 202° |
| 2026-05-05 11:35 | 45.29024 | -5.18338 | 36991 ft | 454 kts | 202° |
| 2026-05-05 11:36 | 45.23132 | -5.21577 | 36992 ft | 454 kts | 202° |
| 2026-05-05 11:36 | 45.17280 | -5.24786 | 36978 ft | 454 kts | 202° |
| 2026-05-05 11:37 | 45.11392 | -5.28008 | 36997 ft | 454 kts | 202° |
| 2026-05-05 11:37 | 45.05499 | -5.31226 | 36997 ft | 454 kts | 202° |
| 2026-05-05 11:38 | 44.99609 | -5.34435 | 37000 ft | 454 kts | 202° |
| 2026-05-05 11:38 | 44.93719 | -5.37637 | 36995 ft | 454 kts | 202° |
| 2026-05-05 11:39 | 44.87826 | -5.40833 | 37004 ft | 453 kts | 202° |
| 2026-05-05 11:39 | 44.81937 | -5.44021 | 37009 ft | 454 kts | 202° |
| 2026-05-05 11:40 | 44.76042 | -5.47205 | 36998 ft | 454 kts | 202° |
| 2026-05-05 11:40 | 44.70147 | -5.50382 | 37006 ft | 454 kts | 202° |
| 2026-05-05 11:41 | 44.64249 | -5.53555 | 37014 ft | 454 kts | 202° |
| 2026-05-05 11:41 | 44.58364 | -5.56785 | 37004 ft | 454 kts | 204° |
| 2026-05-05 11:42 | 44.52592 | -5.60356 | 37006 ft | 453 kts | 206° |
| 2026-05-05 11:42 | 44.46841 | -5.63994 | 37017 ft | 453 kts | 205° |
| 2026-05-05 11:43 | 44.41075 | -5.67590 | 37006 ft | 454 kts | 205° |
| 2026-05-05 11:43 | 44.35303 | -5.71149 | 37010 ft | 453 kts | 205° |
| 2026-05-05 11:44 | 44.29527 | -5.74689 | 37020 ft | 453 kts | 205° |
| 2026-05-05 11:44 | 44.23748 | -5.78224 | 37019 ft | 453 kts | 205° |
| 2026-05-05 11:45 | 44.17970 | -5.81751 | 37021 ft | 453 kts | 205° |
| 2026-05-05 11:45 | 44.12193 | -5.85271 | 37022 ft | 453 kts | 205° |
| 2026-05-05 11:46 | 44.06413 | -5.88785 | 37019 ft | 453 kts | 206° |
| 2026-05-05 11:46 | 44.00636 | -5.92290 | 37023 ft | 453 kts | 206° |
| 2026-05-05 11:47 | 43.94858 | -5.95788 | 37027 ft | 453 kts | 206° |
| 2026-05-05 11:47 | 43.89079 | -5.99279 | 37026 ft | 453 kts | 206° |
| 2026-05-05 11:48 | 43.80422 | -6.04495 | 37037 ft | 452 kts | 206° |
| 2026-05-05 11:48 | 43.74650 | -6.07964 | 37038 ft | 452 kts | 206° |
| 2026-05-05 11:49 | 43.68883 | -6.11422 | 37035 ft | 452 kts | 206° |
| 2026-05-05 11:49 | 43.63120 | -6.14871 | 37038 ft | 451 kts | 206° |
| 2026-05-05 11:50 | 43.57356 | -6.18313 | 37023 ft | 451 kts | 206° |
| 2026-05-05 11:50 | 43.51589 | -6.21750 | 37036 ft | 452 kts | 206° |
| 2026-05-05 11:51 | 43.45810 | -6.25186 | 37025 ft | 453 kts | 206° |
| 2026-05-05 11:51 | 43.40030 | -6.28616 | 37035 ft | 453 kts | 206° |
| 2026-05-05 11:52 | 43.34241 | -6.32044 | 37046 ft | 453 kts | 206° |
| 2026-05-05 11:52 | 43.28456 | -6.35463 | 37034 ft | 452 kts | 206° |
| 2026-05-05 11:53 | 43.22675 | -6.38872 | 37028 ft | 452 kts | 206° |
| 2026-05-05 11:53 | 43.16900 | -6.42270 | 37036 ft | 452 kts | 206° |
| 2026-05-05 11:54 | 43.11162 | -6.45641 | 37043 ft | 452 kts | 206° |
| 2026-05-05 11:54 | 43.05395 | -6.49020 | 37038 ft | 451 kts | 207° |
| 2026-05-05 11:55 | 42.99632 | -6.52391 | 37025 ft | 451 kts | 207° |
| 2026-05-05 11:55 | 42.93864 | -6.55758 | 37052 ft | 451 kts | 207° |
| 2026-05-05 11:56 | 42.88097 | -6.59118 | 37032 ft | 451 kts | 207° |
| 2026-05-05 11:56 | 42.82322 | -6.62475 | 37031 ft | 451 kts | 207° |
| 2026-05-05 11:57 | 42.76543 | -6.65828 | 37039 ft | 452 kts | 207° |
| 2026-05-05 11:57 | 42.70755 | -6.69179 | 37033 ft | 452 kts | 207° |
| 2026-05-05 11:58 | 42.64968 | -6.72521 | 37049 ft | 451 kts | 207° |
| 2026-05-05 11:58 | 42.59186 | -6.75856 | 37046 ft | 452 kts | 207° |
| 2026-05-05 11:59 | 42.54379 | -6.78622 | 37040 ft | 452 kts | 207° |
| 2026-05-05 11:59 | 42.48592 | -6.81947 | 37050 ft | 452 kts | 207° |
| 2026-05-05 12:00 | 42.42800 | -6.85268 | 37036 ft | 452 kts | 207° |
| 2026-05-05 12:00 | 42.37012 | -6.88579 | 37053 ft | 451 kts | 207° |
| 2026-05-05 12:01 | 42.31227 | -6.91883 | 37046 ft | 452 kts | 207° |
| 2026-05-05 12:01 | 42.25435 | -6.95185 | 37045 ft | 452 kts | 207° |
| 2026-05-05 12:02 | 42.19634 | -6.98483 | 37040 ft | 452 kts | 207° |
| 2026-05-05 12:02 | 42.13832 | -7.01777 | 37043 ft | 452 kts | 207° |
| 2026-05-05 12:03 | 42.08031 | -7.05062 | 37038 ft | 452 kts | 207° |
| 2026-05-05 12:03 | 42.02233 | -7.08341 | 37033 ft | 452 kts | 207° |
| 2026-05-05 12:04 | 41.96435 | -7.11613 | 37017 ft | 451 kts | 207° |
| 2026-05-05 12:04 | 41.90655 | -7.14867 | 37039 ft | 450 kts | 207° |
| 2026-05-05 12:05 | 41.84923 | -7.18090 | 37037 ft | 449 kts | 207° |
| 2026-05-05 12:05 | 41.79116 | -7.21350 | 37027 ft | 450 kts | 207° |
| 2026-05-05 12:06 | 41.73422 | -7.24729 | 37025 ft | 444 kts | 214° |
| 2026-05-05 12:06 | 41.68120 | -7.28817 | 37023 ft | 442 kts | 216° |
| 2026-05-05 12:07 | 41.62816 | -7.33059 | 37040 ft | 441 kts | 216° |
| 2026-05-05 12:07 | 41.57557 | -7.37203 | 37043 ft | 442 kts | 216° |
| 2026-05-05 12:08 | 41.52241 | -7.41333 | 37021 ft | 442 kts | 216° |
| 2026-05-05 12:08 | 41.46916 | -7.45443 | 37041 ft | 442 kts | 216° |
| 2026-05-05 12:09 | 41.41592 | -7.49542 | 37056 ft | 442 kts | 215° |
| 2026-05-05 12:09 | 41.36264 | -7.53639 | 37050 ft | 442 kts | 215° |
| 2026-05-05 12:10 | 41.30933 | -7.57731 | 37034 ft | 442 kts | 216° |
| 2026-05-05 12:10 | 41.25607 | -7.61811 | 37057 ft | 442 kts | 216° |
| 2026-05-05 12:11 | 41.20279 | -7.65884 | 37066 ft | 441 kts | 216° |
| 2026-05-05 12:11 | 41.14962 | -7.69942 | 37060 ft | 441 kts | 216° |
| 2026-05-05 12:12 | 41.09643 | -7.73994 | 37070 ft | 440 kts | 216° |
| 2026-05-05 12:12 | 41.04340 | -7.78027 | 37055 ft | 439 kts | 216° |
| 2026-05-05 12:13 | 40.99049 | -7.82041 | 37066 ft | 438 kts | 216° |
| 2026-05-05 12:13 | 40.93766 | -7.86044 | 37070 ft | 437 kts | 216° |
| 2026-05-05 12:14 | 40.88489 | -7.90034 | 37066 ft | 437 kts | 216° |
| 2026-05-05 12:14 | 40.83223 | -7.94008 | 37069 ft | 435 kts | 216° |
| 2026-05-05 12:15 | 40.77972 | -7.97963 | 37069 ft | 434 kts | 216° |
| 2026-05-05 12:15 | 40.72737 | -8.01900 | 37064 ft | 433 kts | 216° |
| 2026-05-05 12:16 | 40.67545 | -8.05798 | 37075 ft | 432 kts | 216° |
| 2026-05-05 12:16 | 40.62327 | -8.09707 | 37049 ft | 431 kts | 216° |
| 2026-05-05 12:17 | 40.57138 | -8.13587 | 37067 ft | 428 kts | 217° |
| 2026-05-05 12:17 | 40.54554 | -8.15516 | 36890 ft | 427 kts | 217° |
| 2026-05-05 12:17 | 40.51990 | -8.17427 | 36632 ft | 419 kts | 217° |
| 2026-05-05 12:18 | 40.49466 | -8.19304 | 36234 ft | 414 kts | 217° |
| 2026-05-05 12:18 | 40.46974 | -8.21158 | 35918 ft | 410 kts | 217° |
| 2026-05-05 12:18 | 40.44502 | -8.22998 | 35523 ft | 407 kts | 217° |
| 2026-05-05 12:18 | 40.42050 | -8.24822 | 35148 ft | 404 kts | 218° |
| 2026-05-05 12:19 | 40.39615 | -8.26632 | 34784 ft | 401 kts | 218° |
| 2026-05-05 12:19 | 40.37200 | -8.28427 | 34416 ft | 398 kts | 218° |
| 2026-05-05 12:19 | 40.34800 | -8.30208 | 34047 ft | 395 kts | 218° |
| 2026-05-05 12:19 | 40.32411 | -8.31979 | 33620 ft | 393 kts | 219° |
| 2026-05-05 12:20 | 40.30039 | -8.33736 | 33228 ft | 390 kts | 219° |
| 2026-05-05 12:20 | 40.27688 | -8.35476 | 32847 ft | 386 kts | 218° |
| 2026-05-05 12:20 | 40.25362 | -8.37195 | 32525 ft | 382 kts | 218° |
| 2026-05-05 12:20 | 40.23051 | -8.38903 | 32156 ft | 380 kts | 218° |
| 2026-05-05 12:21 | 40.20759 | -8.40595 | 31810 ft | 377 kts | 218° |
| 2026-05-05 12:21 | 40.18482 | -8.42276 | 31442 ft | 375 kts | 218° |
| 2026-05-05 12:21 | 40.16216 | -8.43948 | 31082 ft | 372 kts | 218° |
| 2026-05-05 12:21 | 40.13971 | -8.45601 | 30754 ft | 369 kts | 218° |
| 2026-05-05 12:22 | 40.11746 | -8.47240 | 30443 ft | 366 kts | 218° |
| 2026-05-05 12:22 | 40.09531 | -8.48871 | 30086 ft | 364 kts | 218° |
| 2026-05-05 12:22 | 40.07326 | -8.50493 | 29716 ft | 362 kts | 218° |
| 2026-05-05 12:22 | 40.05141 | -8.52097 | 29358 ft | 359 kts | 218° |
| 2026-05-05 12:23 | 40.02969 | -8.53690 | 29011 ft | 356 kts | 218° |
| 2026-05-05 12:23 | 40.00813 | -8.55259 | 28698 ft | 353 kts | 218° |
| 2026-05-05 12:23 | 39.98665 | -8.56814 | 28399 ft | 354 kts | 218° |
| 2026-05-05 12:23 | 39.96498 | -8.58385 | 28085 ft | 360 kts | 218° |
| 2026-05-05 12:24 | 39.94296 | -8.59981 | 27758 ft | 364 kts | 218° |
| 2026-05-05 12:24 | 39.92080 | -8.61582 | 27406 ft | 362 kts | 217° |
| 2026-05-05 12:24 | 39.89885 | -8.63163 | 27113 ft | 359 kts | 217° |
| 2026-05-05 12:24 | 39.87704 | -8.64732 | 26801 ft | 358 kts | 217° |
| 2026-05-05 12:25 | 39.85533 | -8.66295 | 26480 ft | 356 kts | 217° |
| 2026-05-05 12:25 | 39.83396 | -8.67834 | 26173 ft | 354 kts | 217° |
| 2026-05-05 12:25 | 39.81245 | -8.69382 | 25858 ft | 353 kts | 217° |
| 2026-05-05 12:25 | 39.79102 | -8.70924 | 25553 ft | 352 kts | 218° |
| 2026-05-05 12:26 | 39.76963 | -8.72464 | 25227 ft | 350 kts | 217° |
| 2026-05-05 12:26 | 39.74832 | -8.73995 | 24918 ft | 349 kts | 217° |
| 2026-05-05 12:26 | 39.72712 | -8.75518 | 24619 ft | 348 kts | 217° |
| 2026-05-05 12:26 | 39.70593 | -8.77040 | 24319 ft | 348 kts | 217° |
| 2026-05-05 12:27 | 39.68479 | -8.78557 | 23987 ft | 347 kts | 217° |
| 2026-05-05 12:27 | 39.66367 | -8.80071 | 23688 ft | 346 kts | 217° |
| 2026-05-05 12:27 | 39.64266 | -8.81576 | 23341 ft | 345 kts | 217° |
| 2026-05-05 12:27 | 39.62172 | -8.83074 | 23001 ft | 343 kts | 217° |
| 2026-05-05 12:28 | 39.60082 | -8.84569 | 22687 ft | 342 kts | 217° |
| 2026-05-05 12:28 | 39.58004 | -8.86054 | 22376 ft | 340 kts | 216° |
| 2026-05-05 12:28 | 39.55933 | -8.87533 | 22071 ft | 339 kts | 216° |
| 2026-05-05 12:28 | 39.53869 | -8.89007 | 21769 ft | 338 kts | 216° |
| 2026-05-05 12:29 | 39.51813 | -8.90474 | 21468 ft | 338 kts | 216° |
| 2026-05-05 12:29 | 39.49758 | -8.91939 | 21166 ft | 337 kts | 216° |
| 2026-05-05 12:29 | 39.47702 | -8.93404 | 20865 ft | 337 kts | 216° |
| 2026-05-05 12:29 | 39.45653 | -8.94863 | 20554 ft | 336 kts | 216° |
| 2026-05-05 12:30 | 39.43604 | -8.96321 | 20269 ft | 336 kts | 216° |
| 2026-05-05 12:30 | 39.41561 | -8.97773 | 19975 ft | 335 kts | 216° |
| 2026-05-05 12:30 | 39.39520 | -8.99223 | 19684 ft | 335 kts | 216° |
| 2026-05-05 12:30 | 39.37479 | -9.00673 | 19400 ft | 335 kts | 215° |
| 2026-05-05 12:31 | 39.35429 | -9.02128 | 19094 ft | 336 kts | 215° |
| 2026-05-05 12:31 | 39.33381 | -9.03581 | 18806 ft | 336 kts | 215° |
| 2026-05-05 12:31 | 39.31328 | -9.05036 | 18505 ft | 337 kts | 215° |
| 2026-05-05 12:31 | 39.29266 | -9.06496 | 18165 ft | 338 kts | 215° |
| 2026-05-05 12:32 | 39.27235 | -9.07932 | 17839 ft | 336 kts | 215° |
| 2026-05-05 12:32 | 39.25197 | -9.09371 | 17509 ft | 333 kts | 214° |
| 2026-05-05 12:32 | 39.23178 | -9.10796 | 17230 ft | 329 kts | 214° |
| 2026-05-05 12:32 | 39.21180 | -9.12205 | 16923 ft | 326 kts | 214° |
| 2026-05-05 12:33 | 39.19199 | -9.13603 | 16631 ft | 323 kts | 214° |
| 2026-05-05 12:33 | 39.17241 | -9.14983 | 16348 ft | 319 kts | 214° |
| 2026-05-05 12:33 | 39.15299 | -9.16351 | 16068 ft | 316 kts | 214° |
| 2026-05-05 12:33 | 39.13379 | -9.17704 | 15794 ft | 314 kts | 214° |
| 2026-05-05 12:34 | 39.11467 | -9.19051 | 15518 ft | 312 kts | 214° |
| 2026-05-05 12:34 | 39.09565 | -9.20389 | 15242 ft | 311 kts | 214° |
| 2026-05-05 12:34 | 39.07672 | -9.21720 | 14968 ft | 309 kts | 214° |
| 2026-05-05 12:34 | 39.05792 | -9.23041 | 14693 ft | 308 kts | 214° |
| 2026-05-05 12:35 | 39.03914 | -9.24361 | 14442 ft | 307 kts | 214° |
| 2026-05-05 12:35 | 39.02043 | -9.25675 | 14166 ft | 306 kts | 214° |
| 2026-05-05 12:35 | 39.00175 | -9.26985 | 13894 ft | 306 kts | 213° |
| 2026-05-05 12:35 | 38.98309 | -9.28293 | 13590 ft | 305 kts | 213° |
| 2026-05-05 12:36 | 38.96446 | -9.29599 | 13297 ft | 304 kts | 213° |
| 2026-05-05 12:36 | 38.94595 | -9.30895 | 13026 ft | 303 kts | 213° |
| 2026-05-05 12:36 | 38.92745 | -9.32189 | 12752 ft | 302 kts | 213° |
| 2026-05-05 12:36 | 38.90900 | -9.33479 | 12483 ft | 302 kts | 213° |
| 2026-05-05 12:37 | 38.89058 | -9.34766 | 12217 ft | 301 kts | 213° |
| 2026-05-05 12:37 | 38.87221 | -9.36049 | 11947 ft | 300 kts | 213° |
| 2026-05-05 12:37 | 38.85387 | -9.37330 | 11675 ft | 300 kts | 212° |
| 2026-05-05 12:37 | 38.83558 | -9.38605 | 11406 ft | 298 kts | 212° |
| 2026-05-05 12:38 | 38.81762 | -9.39858 | 11154 ft | 298 kts | 212° |
| 2026-05-05 12:38 | 38.79942 | -9.41126 | 10861 ft | 298 kts | 212° |
| 2026-05-05 12:38 | 38.78116 | -9.42399 | 10546 ft | 300 kts | 212° |
| 2026-05-05 12:38 | 38.76283 | -9.43674 | 10258 ft | 299 kts | 212° |
| 2026-05-05 12:39 | 38.74461 | -9.44942 | 9991 ft | 297 kts | 212° |
| 2026-05-05 12:39 | 38.72648 | -9.46202 | 9680 ft | 295 kts | 211° |
| 2026-05-05 12:39 | 38.70849 | -9.47453 | 9410 ft | 293 kts | 211° |
| 2026-05-05 12:39 | 38.69066 | -9.48690 | 9151 ft | 290 kts | 211° |
| 2026-05-05 12:40 | 38.67303 | -9.49913 | 8887 ft | 287 kts | 211° |
| 2026-05-05 12:40 | 38.65554 | -9.51120 | 8634 ft | 284 kts | 209° |
| 2026-05-05 12:40 | 38.63660 | -9.51779 | 8378 ft | 285 kts | 180° |
| 2026-05-05 12:40 | 38.61767 | -9.51225 | 8134 ft | 278 kts | 151° |
| 2026-05-05 12:41 | 38.60307 | -9.49690 | 7806 ft | 270 kts | 123° |
| 2026-05-05 12:41 | 38.59493 | -9.47584 | 7485 ft | 261 kts | 101° |
| 2026-05-05 12:41 | 38.59297 | -9.45327 | 7182 ft | 253 kts | 87° |
| 2026-05-05 12:41 | 38.59288 | -9.43092 | 6863 ft | 250 kts | 86° |
| 2026-05-05 12:42 | 38.59293 | -9.40876 | 6545 ft | 248 kts | 86° |
| 2026-05-05 12:42 | 38.59296 | -9.38684 | 6209 ft | 246 kts | 86° |
| 2026-05-05 12:42 | 38.59294 | -9.36516 | 5885 ft | 243 kts | 86° |
| 2026-05-05 12:42 | 38.59289 | -9.34371 | 5579 ft | 240 kts | 86° |
| 2026-05-05 12:43 | 38.59281 | -9.32236 | 5289 ft | 240 kts | 86° |
| 2026-05-05 12:43 | 38.59271 | -9.30092 | 4995 ft | 242 kts | 86° |
| 2026-05-05 12:43 | 38.59259 | -9.27926 | 4677 ft | 245 kts | 87° |
| 2026-05-05 12:43 | 38.59247 | -9.25725 | 4269 ft | 250 kts | 87° |
| 2026-05-05 12:44 | 38.59481 | -9.23567 | 4008 ft | 238 kts | 60° |
| 2026-05-05 12:44 | 38.60567 | -9.22153 | 3717 ft | 220 kts | 21° |
| 2026-05-05 12:44 | 38.62010 | -9.21797 | 3465 ft | 207 kts | 8° |
| 2026-05-05 12:44 | 38.63376 | -9.21332 | 3184 ft | 200 kts | 17° |
| 2026-05-05 12:45 | 38.64662 | -9.20767 | 2915 ft | 191 kts | 18° |
| 2026-05-05 12:45 | 38.65890 | -9.20156 | 2654 ft | 187 kts | 18° |
| 2026-05-05 12:45 | 38.67086 | -9.19522 | 2408 ft | 186 kts | 19° |
| 2026-05-05 12:45 | 38.68279 | -9.18880 | 2140 ft | 185 kts | 18° |
| 2026-05-05 12:46 | 38.69445 | -9.18255 | 1891 ft | 177 kts | 19° |
| 2026-05-05 12:46 | 38.70535 | -9.17668 | 1687 ft | 166 kts | 17° |
| 2026-05-05 12:46 | 38.71574 | -9.17111 | 1469 ft | 155 kts | 17° |
| 2026-05-05 12:46 | 38.72542 | -9.16593 | 1241 ft | 148 kts | 18° |
| 2026-05-05 12:47 | 38.73477 | -9.16092 | 1042 ft | 145 kts | 18° |
| 2026-05-05 12:47 | 38.74404 | -9.15595 | 851 ft | 145 kts | 18° |
| 2026-05-05 12:47 | 38.75017 | -9.15266 | 728 ft | 147 kts | 18° |
| 2026-05-05 12:47 | 38.75953 | -9.14767 | 539 ft | 147 kts | 19° |
| 2026-05-05 12:48 | 38.76898 | -9.14251 | 354 ft | 145 kts | 17° |
| 2026-05-05 12:48 | 38.77700 | -9.13825 | 362 ft | 96 kts | 23° |
| 2026-05-05 12:48 | 38.78110 | -9.13605 | 366 ft | 29 kts | 22° |
| 2026-05-05 12:48 | 38.78245 | -9.13516 | 367 ft | 21 kts | 43° |
| 2026-05-05 12:49 | 38.78337 | -9.13399 | 363 ft | 16 kts | 48° |
| 2026-05-05 12:49 | 38.78375 | -9.13301 | 362 ft | 12 kts | 102° |
| 2026-05-05 12:49 | 38.78306 | -9.13273 | 361 ft | 12 kts | 198° |
| 2026-05-05 12:49 | 38.78228 | -9.13312 | 358 ft | 12 kts | 202° |
| 2026-05-05 12:50 | 38.78153 | -9.13353 | 361 ft | 12 kts | 202° |
| 2026-05-05 12:50 | 38.78080 | -9.13391 | 357 ft | 11 kts | 202° |
| 2026-05-05 12:50 | 38.78001 | -9.13432 | 357 ft | 14 kts | 202° |
| 2026-05-05 12:50 | 38.77895 | -9.13491 | 362 ft | 19 kts | 203° |
| 2026-05-05 12:51 | 38.77760 | -9.13564 | 359 ft | 22 kts | 203° |
| 2026-05-05 12:51 | 38.77614 | -9.13588 | 355 ft | 22 kts | 168° |
| 2026-05-05 12:51 | 38.77463 | -9.13547 | 348 ft | 22 kts | 168° |
| 2026-05-05 12:51 | 38.77313 | -9.13507 | 346 ft | 22 kts | 168° |
| 2026-05-05 12:52 | 38.77168 | -9.13467 | 345 ft | 21 kts | 168° |
| 2026-05-05 12:52 | 38.77027 | -9.13430 | 344 ft | 20 kts | 168° |
| 2026-05-05 12:52 | 38.76889 | -9.13394 | 344 ft | 20 kts | 167° |
| 2026-05-05 12:52 | 38.76757 | -9.13376 | 350 ft | 19 kts | 206° |
| 2026-05-05 12:53 | 38.76656 | -9.13478 | 346 ft | 19 kts | 248° |
| 2026-05-05 12:53 | 38.76630 | -9.13634 | 347 ft | 14 kts | 258° |
| 2026-05-05 12:53 | 38.76562 | -9.13662 | 347 ft | 11 kts | 170° |
| 2026-05-05 12:53 | 38.76508 | -9.13647 | 347 ft | 3 kts | 168° |
| 2026-05-05 12:54 | 38.76480 | -9.13639 | 347 ft | 1 kts | 169° |
| 2026-05-05 12:54 | 38.76477 | -9.13639 | 347 ft | 0 kts | 169° |